createdAt,value
2022-12-19T00:01:52.817Z,0.60
2022-12-19T00:04:21.299Z,0.60
2022-12-19T00:06:48.294Z,0.60
2022-12-19T00:09:15.610Z,0.60
2022-12-19T00:11:42.828Z,0.60
2022-12-19T00:14:12.849Z,0.60
2022-12-19T00:16:39.857Z,0.60
2022-12-19T00:19:07.722Z,0.60
2022-12-19T00:21:35.449Z,0.60
2022-12-19T00:24:09.875Z,0.60
2022-12-19T00:26:49.116Z,0.60
2022-12-19T00:29:16.349Z,0.60
2022-12-19T00:31:43.703Z,0.60
2022-12-19T00:34:11.035Z,0.70
2022-12-19T00:36:37.948Z,0.70
2022-12-19T00:39:08.308Z,0.60
2022-12-19T00:41:41.304Z,0.60
2022-12-19T00:44:14.209Z,0.60
2022-12-19T00:46:43.097Z,0.60
2022-12-19T00:49:12.555Z,0.60
2022-12-19T00:51:39.454Z,0.60
2022-12-19T00:54:08.052Z,0.60
2022-12-19T00:56:37.502Z,0.60
2022-12-19T00:59:05.054Z,0.60
2022-12-19T01:01:35.317Z,0.70
2022-12-19T01:06:58.039Z,0.70
2022-12-19T01:09:28.740Z,0.70
2022-12-19T01:12:14.021Z,0.80
2022-12-19T01:14:40.963Z,0.70
2022-12-19T01:17:07.912Z,0.60
2022-12-19T01:19:38.957Z,0.70
2022-12-19T01:22:09.093Z,0.70
2022-12-19T01:24:36.618Z,0.70
2022-12-19T01:27:03.608Z,0.60
2022-12-19T01:29:31.984Z,0.70
2022-12-19T01:32:01.167Z,0.60
2022-12-19T01:34:28.200Z,0.70
2022-12-19T01:36:55.108Z,0.60
2022-12-19T01:39:22.173Z,0.60
2022-12-19T01:41:51.539Z,0.60
2022-12-19T01:44:18.418Z,0.60
2022-12-19T01:46:50.350Z,0.60
2022-12-19T01:49:30.102Z,0.60
2022-12-19T01:52:00.221Z,0.60
2022-12-19T01:54:36.343Z,0.60
2022-12-19T01:57:06.842Z,0.60
2022-12-19T01:59:45.071Z,0.60
2022-12-19T02:02:17.839Z,0.60
2022-12-19T02:04:47.370Z,0.60
2022-12-19T02:07:16.600Z,0.50
2022-12-19T02:09:47.011Z,0.60
2022-12-19T02:12:14.872Z,0.80
2022-12-19T02:14:43.664Z,0.80
2022-12-19T02:17:25.149Z,0.80
2022-12-19T02:20:10.462Z,0.80
2022-12-19T02:23:04.648Z,0.60
2022-12-19T02:25:56.917Z,0.50
2022-12-19T02:29:01.933Z,0.60
2022-12-19T02:31:54.212Z,0.50
2022-12-19T02:34:44.552Z,0.50
2022-12-19T02:37:26.416Z,0.40
2022-12-19T02:40:05.749Z,0.40
2022-12-19T02:42:37.867Z,0.40
2022-12-19T02:45:08.219Z,0.40
2022-12-19T02:47:36.306Z,0.40
2022-12-19T02:50:04.617Z,0.40
2022-12-19T02:52:32.084Z,0.50
2022-12-19T02:55:18.779Z,0.60
2022-12-19T02:58:14.276Z,0.60
2022-12-19T03:00:58.082Z,0.60
2022-12-19T03:03:31.168Z,0.60
2022-12-19T03:06:35.029Z,0.60
2022-12-19T03:09:12.904Z,0.40
2022-12-19T03:11:42.313Z,0.50
2022-12-19T03:14:16.580Z,0.60
2022-12-19T03:16:43.850Z,0.70
2022-12-19T03:19:14.027Z,0.70
2022-12-19T03:21:53.342Z,0.80
2022-12-19T03:24:20.438Z,0.80
2022-12-19T03:26:54.918Z,0.80
2022-12-19T03:29:32.841Z,0.80
2022-12-19T03:32:04.085Z,0.80
2022-12-19T03:34:40.884Z,0.80
2022-12-19T03:37:16.571Z,0.90
2022-12-19T03:39:49.135Z,1.00
2022-12-19T03:42:36.658Z,0.90
2022-12-19T03:45:06.320Z,1.00
2022-12-19T03:47:43.090Z,1.00
2022-12-19T03:50:10.799Z,1.00
2022-12-19T03:52:43.541Z,1.00
2022-12-19T03:55:24.613Z,1.00
2022-12-19T03:58:01.156Z,1.00
2022-12-19T04:00:28.743Z,1.00
2022-12-19T04:02:58.838Z,1.00
2022-12-19T04:05:28.132Z,1.00
2022-12-19T04:08:00.191Z,1.00
2022-12-19T04:10:28.523Z,1.00
2022-12-19T04:13:11.993Z,1.00
2022-12-19T04:16:03.768Z,1.00
2022-12-19T04:18:31.949Z,1.00
2022-12-19T04:21:08.783Z,1.10
2022-12-19T04:23:45.470Z,1.10
2022-12-19T04:26:16.098Z,1.10
2022-12-19T04:28:50.417Z,1.10
2022-12-19T04:31:20.065Z,1.20
2022-12-19T04:33:47.138Z,1.10
2022-12-19T04:36:14.323Z,1.20
2022-12-19T04:38:41.780Z,1.10
2022-12-19T04:41:08.923Z,1.20
2022-12-19T04:43:36.046Z,1.20
2022-12-19T04:46:03.567Z,1.20
2022-12-19T04:48:30.639Z,1.30
2022-12-19T04:50:57.814Z,1.30
2022-12-19T04:53:24.986Z,1.30
2022-12-19T04:55:59.854Z,1.30
2022-12-19T04:58:27.251Z,1.40
2022-12-19T05:00:54.241Z,1.40
2022-12-19T05:03:21.382Z,1.40
2022-12-19T05:05:48.284Z,1.40
2022-12-19T05:08:15.264Z,1.40
2022-12-19T05:10:42.249Z,1.50
2022-12-19T05:13:09.611Z,1.60
2022-12-19T05:15:36.565Z,1.60
2022-12-19T05:18:04.232Z,1.60
2022-12-19T05:20:31.141Z,1.60
2022-12-19T05:23:00.780Z,1.60
2022-12-19T05:25:30.125Z,1.60
2022-12-19T05:27:57.078Z,1.60
2022-12-19T05:30:24.617Z,1.50
2022-12-19T05:32:52.990Z,1.60
2022-12-19T05:35:19.914Z,1.60
2022-12-19T05:37:46.869Z,1.60
2022-12-19T05:40:13.884Z,1.70
2022-12-19T05:42:40.849Z,1.70
2022-12-19T05:45:09.427Z,1.70
2022-12-19T05:47:38.041Z,1.70
2022-12-19T05:50:06.065Z,1.70
2022-12-19T05:52:33.116Z,1.70
2022-12-19T05:55:00.216Z,1.70
2022-12-19T05:57:27.233Z,1.70
2022-12-19T05:59:54.204Z,1.70
2022-12-19T06:02:21.557Z,1.70
2022-12-19T06:04:48.627Z,1.70
2022-12-19T06:07:20.730Z,1.70
2022-12-19T06:09:48.043Z,1.80
2022-12-19T06:12:15.872Z,1.70
2022-12-19T06:14:42.852Z,1.80
2022-12-19T06:17:10.115Z,1.70
2022-12-19T06:19:38.283Z,1.80
2022-12-19T06:22:05.331Z,1.90
2022-12-19T06:24:32.480Z,1.80
2022-12-19T06:26:59.818Z,1.70
2022-12-19T06:29:26.988Z,1.80
2022-12-19T06:31:54.050Z,1.80
2022-12-19T06:34:39.868Z,1.70
2022-12-19T06:37:08.484Z,1.70
2022-12-19T06:39:35.789Z,1.80
2022-12-19T06:42:21.262Z,1.80
2022-12-19T06:44:48.223Z,1.80
2022-12-19T06:47:15.304Z,1.90
2022-12-19T06:49:42.940Z,1.80
2022-12-19T06:52:09.872Z,1.90
2022-12-19T06:54:36.792Z,1.90
2022-12-19T06:57:03.775Z,1.80
2022-12-19T06:59:30.861Z,1.90
2022-12-19T07:02:03.353Z,1.80
2022-12-19T07:04:52.395Z,1.80
2022-12-19T07:07:20.047Z,1.80
2022-12-19T07:09:47.073Z,1.80
2022-12-19T07:12:14.059Z,1.80
2022-12-19T07:14:41.000Z,1.80
2022-12-19T07:17:08.012Z,1.80
2022-12-19T07:19:35.901Z,1.80
2022-12-19T07:22:04.269Z,1.80
2022-12-19T07:24:31.640Z,1.80
2022-12-19T07:26:58.771Z,1.80
2022-12-19T07:29:25.964Z,1.80
2022-12-19T07:31:54.940Z,1.80
2022-12-19T07:34:22.159Z,1.70
2022-12-19T07:36:49.129Z,1.70
2022-12-19T07:39:17.058Z,1.70
2022-12-19T07:41:44.057Z,1.70
2022-12-19T07:44:13.418Z,1.70
2022-12-19T07:46:40.629Z,1.70
2022-12-19T07:49:07.837Z,1.70
2022-12-19T07:51:34.901Z,1.70
2022-12-19T07:54:02.329Z,1.70
2022-12-19T07:56:29.679Z,1.70
2022-12-19T07:58:58.285Z,1.70
2022-12-19T08:01:25.602Z,1.70
2022-12-19T08:03:55.995Z,1.70
2022-12-19T08:06:23.638Z,1.60
2022-12-19T08:08:51.045Z,1.70
2022-12-19T08:11:27.468Z,1.70
2022-12-19T08:13:55.317Z,1.70
2022-12-19T08:16:26.915Z,1.70
2022-12-19T08:18:55.714Z,1.70
2022-12-19T08:21:23.554Z,1.70
2022-12-19T08:23:52.232Z,1.70
2022-12-19T08:26:26.274Z,1.60
2022-12-19T08:28:55.707Z,1.60
2022-12-19T08:31:25.337Z,1.70
2022-12-19T08:33:53.863Z,1.60
2022-12-19T08:36:21.653Z,1.60
2022-12-19T08:38:49.657Z,1.60
2022-12-19T08:41:18.086Z,1.50
2022-12-19T08:43:50.807Z,1.60
2022-12-19T08:46:19.880Z,1.60
2022-12-19T08:48:47.180Z,1.60
2022-12-19T08:51:16.238Z,1.60
2022-12-19T08:53:45.227Z,1.50
2022-12-19T08:56:15.630Z,1.50
2022-12-19T08:58:43.570Z,1.40
2022-12-19T09:01:16.730Z,1.40
2022-12-19T09:03:45.394Z,1.50
2022-12-19T09:06:31.551Z,1.40
2022-12-19T09:09:00.498Z,1.30
2022-12-19T09:11:28.294Z,1.30
2022-12-19T09:13:57.546Z,1.30
2022-12-19T09:16:27.074Z,1.40
2022-12-19T09:18:57.161Z,1.30
2022-12-19T09:21:25.588Z,1.30
2022-12-19T09:24:03.466Z,1.30
2022-12-19T09:26:34.830Z,1.20
2022-12-19T09:29:02.318Z,1.20
2022-12-19T09:31:30.118Z,1.20
2022-12-19T09:33:58.836Z,1.20
2022-12-19T09:36:26.182Z,1.20
2022-12-19T09:38:58.239Z,1.20
2022-12-19T09:41:31.652Z,1.20
2022-12-19T09:44:17.587Z,1.30
2022-12-19T09:46:50.861Z,1.30
2022-12-19T09:49:41.875Z,1.30
2022-12-19T09:52:21.758Z,1.20
2022-12-19T09:55:05.752Z,1.30
2022-12-19T09:57:42.163Z,1.20
2022-12-19T10:00:14.796Z,1.20
2022-12-19T10:02:57.078Z,1.20
2022-12-19T10:06:46.098Z,1.20
2022-12-19T10:09:49.985Z,1.30
2022-12-19T10:12:42.983Z,1.30
2022-12-19T10:15:12.506Z,1.30
2022-12-19T10:18:05.729Z,1.30
2022-12-19T10:20:44.443Z,1.30
2022-12-19T10:23:17.154Z,1.20
2022-12-19T10:26:07.091Z,1.30
2022-12-19T10:29:13.609Z,1.30
2022-12-19T10:32:24.863Z,1.40
2022-12-19T10:34:53.726Z,1.40
2022-12-19T10:37:35.176Z,1.40
2022-12-19T10:40:30.964Z,1.40
2022-12-19T10:43:10.886Z,1.50
2022-12-19T10:45:47.440Z,1.50
2022-12-19T10:48:30.201Z,1.60
2022-12-19T10:51:06.179Z,1.50
2022-12-19T10:53:43.935Z,1.60
2022-12-19T10:56:37.113Z,1.50
2022-12-19T10:59:20.835Z,1.60
2022-12-19T11:02:21.020Z,1.60
2022-12-19T11:05:05.948Z,1.70
2022-12-19T11:07:36.168Z,1.80
2022-12-19T11:11:41.386Z,1.80
2022-12-19T11:17:33.614Z,1.80
2022-12-19T11:25:52.284Z,1.80
2022-12-19T11:29:15.976Z,1.80
2022-12-19T11:29:24.950Z,1.80
2022-12-19T11:29:30.013Z,1.80
2022-12-19T11:30:43.748Z,1.90
2022-12-19T11:34:14.010Z,1.80
2022-12-19T11:36:55.921Z,1.90
2022-12-19T11:39:32.778Z,1.90
2022-12-19T11:42:02.905Z,1.90
2022-12-19T11:44:36.515Z,1.90
2022-12-19T11:47:41.234Z,2.00
2022-12-19T11:50:14.205Z,2.00
2022-12-19T11:53:14.897Z,2.20
2022-12-19T11:55:47.710Z,2.10
2022-12-19T11:58:15.087Z,2.10
2022-12-19T12:00:55.906Z,2.10
2022-12-19T12:03:40.949Z,2.10
2022-12-19T12:06:31.314Z,2.10
2022-12-19T12:11:03.702Z,2.10
2022-12-19T12:15:07.416Z,2.10
2022-12-19T12:25:48.641Z,2.10
2022-12-19T12:31:01.331Z,2.10
2022-12-19T12:31:15.936Z,2.40
2022-12-19T12:31:18.152Z,2.30
2022-12-19T12:31:49.076Z,2.30
2022-12-19T12:32:00.367Z,2.40
2022-12-19T12:35:46.564Z,2.50
2022-12-19T12:40:23.768Z,2.50
2022-12-19T12:43:15.862Z,2.60
2022-12-19T12:45:47.582Z,2.70
2022-12-19T12:48:36.965Z,2.70
2022-12-19T12:51:05.543Z,2.70
2022-12-19T12:53:36.031Z,2.80
2022-12-19T12:56:07.369Z,2.80
2022-12-19T12:58:54.171Z,2.70
2022-12-19T13:01:34.115Z,2.90
2022-12-19T13:04:13.450Z,2.90
2022-12-19T13:06:43.068Z,2.90
2022-12-19T13:09:10.562Z,2.90
2022-12-19T13:12:13.047Z,2.90
2022-12-19T13:14:42.314Z,3.00
2022-12-19T13:17:18.390Z,2.90
2022-12-19T13:20:39.635Z,2.80
2022-12-19T13:23:22.820Z,2.90
2022-12-19T13:25:54.436Z,3.00
2022-12-19T13:28:21.624Z,3.00
2022-12-19T13:31:18.674Z,3.00
2022-12-19T13:33:56.213Z,3.00
2022-12-19T13:39:47.685Z,3.10
2022-12-19T13:40:07.473Z,3.00
2022-12-19T13:43:10.694Z,2.90
2022-12-19T13:45:41.495Z,3.00
2022-12-19T13:48:16.811Z,3.10
2022-12-19T13:50:48.976Z,3.00
2022-12-19T13:53:23.918Z,2.90
2022-12-19T13:56:01.553Z,3.00
2022-12-19T13:58:45.697Z,3.00
2022-12-19T14:01:27.913Z,3.00
2022-12-19T14:04:11.003Z,3.00
2022-12-19T14:06:44.675Z,3.10
2022-12-19T14:11:34.328Z,3.10
2022-12-19T14:13:52.096Z,3.10
2022-12-19T14:15:52.469Z,3.00
2022-12-19T14:18:45.107Z,3.10
2022-12-19T14:22:10.256Z,3.00
2022-12-19T14:24:23.521Z,3.10
2022-12-19T14:28:17.341Z,3.00
2022-12-19T14:30:26.578Z,3.00
2022-12-19T14:33:47.345Z,3.00
2022-12-19T14:36:12.188Z,3.00
2022-12-19T14:39:24.645Z,3.10
2022-12-19T14:42:04.128Z,3.10
2022-12-19T14:53:51.145Z,3.10
2022-12-19T14:54:18.065Z,3.10
2022-12-19T14:54:39.877Z,3.10
2022-12-19T14:54:52.804Z,3.10
2022-12-19T14:56:54.430Z,3.10
2022-12-19T14:59:05.873Z,3.10
2022-12-19T15:01:36.832Z,3.00
2022-12-19T15:04:53.510Z,3.10
2022-12-19T15:07:23.758Z,3.20
2022-12-19T15:11:02.452Z,3.10
2022-12-19T15:14:57.901Z,3.10
2022-12-19T15:16:01.400Z,3.10
2022-12-19T15:18:39.650Z,3.00
2022-12-19T15:21:12.923Z,3.00
2022-12-19T15:23:42.240Z,3.00
2022-12-19T15:26:28.885Z,3.10
2022-12-19T15:28:57.605Z,3.10
2022-12-19T15:31:41.046Z,3.10
2022-12-19T15:36:58.570Z,3.20
2022-12-19T15:39:29.847Z,3.10
2022-12-19T15:42:00.978Z,3.10
2022-12-19T15:44:35.090Z,3.10
2022-12-19T15:47:05.645Z,3.10
2022-12-19T15:49:35.540Z,3.10
2022-12-19T15:52:03.106Z,3.20
2022-12-19T15:57:29.326Z,3.20
2022-12-19T16:00:02.648Z,3.20
2022-12-19T16:03:04.487Z,3.20
2022-12-19T16:05:20.447Z,3.20
2022-12-19T16:07:47.700Z,3.20
2022-12-19T16:10:15.647Z,3.20
2022-12-19T16:12:55.750Z,3.10
2022-12-19T16:15:32.134Z,3.10
2022-12-19T16:18:01.660Z,3.10
2022-12-19T16:20:37.827Z,3.20
2022-12-19T16:23:05.396Z,3.20
2022-12-19T16:25:43.648Z,3.20
2022-12-19T16:28:35.291Z,3.10
2022-12-19T16:31:15.015Z,3.10
2022-12-19T16:33:42.588Z,3.10
2022-12-19T16:36:10.101Z,3.10
2022-12-19T16:38:37.535Z,3.10
2022-12-19T16:41:08.179Z,3.10
2022-12-19T16:43:55.769Z,3.10
2022-12-19T16:46:30.993Z,3.10
2022-12-19T16:48:58.744Z,3.10
2022-12-19T16:51:28.037Z,3.10
2022-12-19T16:54:09.297Z,3.20
2022-12-19T16:56:41.905Z,3.10
2022-12-19T16:59:19.475Z,3.10
2022-12-19T17:01:47.112Z,3.00
2022-12-19T17:04:16.491Z,3.10
2022-12-19T17:06:43.729Z,3.10
2022-12-19T17:09:22.552Z,3.10
2022-12-19T17:12:01.130Z,3.10
2022-12-19T17:14:32.075Z,3.10
2022-12-19T17:17:00.251Z,3.10
2022-12-19T17:19:37.748Z,3.00
2022-12-19T17:22:12.093Z,3.10
2022-12-19T17:24:41.027Z,3.00
2022-12-19T17:27:08.678Z,3.00
2022-12-19T17:29:35.686Z,3.00
2022-12-19T17:32:03.602Z,3.10
2022-12-19T17:34:35.018Z,3.00
2022-12-19T17:37:05.287Z,3.00
2022-12-19T17:39:34.715Z,3.00
2022-12-19T17:42:23.856Z,3.00
2022-12-19T17:44:51.827Z,3.00
2022-12-19T17:47:20.219Z,3.00
2022-12-19T17:49:48.341Z,3.00
2022-12-19T17:52:20.246Z,3.00
2022-12-19T17:54:47.782Z,3.10
2022-12-19T17:57:16.540Z,3.10
2022-12-19T17:59:46.281Z,3.00
2022-12-19T18:02:26.817Z,3.00
2022-12-19T18:04:54.081Z,3.00
2022-12-19T18:07:21.425Z,3.00
2022-12-19T18:09:48.354Z,3.00
2022-12-19T18:12:15.497Z,2.90
2022-12-19T18:14:42.994Z,2.90
2022-12-19T18:17:17.610Z,2.90
2022-12-19T18:19:44.705Z,2.90
2022-12-19T18:22:15.049Z,2.80
2022-12-19T18:24:42.040Z,2.80
2022-12-19T18:27:09.062Z,2.80
2022-12-19T18:29:36.096Z,2.70
2022-12-19T18:32:06.163Z,2.80
2022-12-19T18:34:34.088Z,2.80
2022-12-19T18:37:02.160Z,2.80
2022-12-19T18:39:29.611Z,2.80
2022-12-19T18:41:56.537Z,2.80
2022-12-19T18:44:23.616Z,2.90
2022-12-19T18:46:52.402Z,2.90
2022-12-19T18:49:20.043Z,2.80
2022-12-19T18:51:47.392Z,2.80
2022-12-19T18:54:19.981Z,2.90
2022-12-19T18:56:47.581Z,2.80
2022-12-19T18:59:14.600Z,2.80
2022-12-19T19:01:47.199Z,2.70
2022-12-19T19:04:18.090Z,2.70
2022-12-19T19:06:50.983Z,2.70
2022-12-19T19:09:20.556Z,2.70
2022-12-19T19:11:48.286Z,2.70
2022-12-19T19:14:15.304Z,2.70
2022-12-19T19:16:42.346Z,2.70
2022-12-19T19:19:14.372Z,2.70
2022-12-19T19:21:42.920Z,2.70
2022-12-19T19:24:16.549Z,2.70
2022-12-19T19:26:43.723Z,2.70
2022-12-19T19:29:11.105Z,2.80
2022-12-19T19:31:40.974Z,2.70
2022-12-19T19:34:29.507Z,2.70
2022-12-19T19:37:00.144Z,2.70
2022-12-19T19:39:28.184Z,2.70
2022-12-19T19:41:56.430Z,2.70
2022-12-19T19:44:23.458Z,2.70
2022-12-19T19:46:50.595Z,2.70
2022-12-19T19:49:17.800Z,2.70
2022-12-19T19:51:45.813Z,2.60
2022-12-19T19:54:12.766Z,2.60
2022-12-19T19:56:41.093Z,2.70
2022-12-19T19:59:08.359Z,2.70
2022-12-19T20:01:35.660Z,2.60
2022-12-19T20:04:02.996Z,2.60
2022-12-19T20:06:30.115Z,2.70
2022-12-19T20:08:57.140Z,2.60
2022-12-19T20:11:24.217Z,2.70
2022-12-19T20:13:51.364Z,2.80
2022-12-19T20:16:19.619Z,2.80
2022-12-19T20:18:50.020Z,2.70
2022-12-19T20:21:18.584Z,2.70
2022-12-19T20:23:47.181Z,2.70
2022-12-19T20:26:16.620Z,2.70
2022-12-19T20:28:48.835Z,2.70
2022-12-19T20:31:21.249Z,2.80
2022-12-19T20:33:49.116Z,2.80
2022-12-19T20:36:17.079Z,2.70
2022-12-19T20:38:44.161Z,2.70
2022-12-19T20:41:11.324Z,2.80
2022-12-19T20:43:38.846Z,2.80
2022-12-19T20:46:09.150Z,2.80
2022-12-19T20:48:36.296Z,2.80
2022-12-19T20:51:04.732Z,2.80
2022-12-19T20:53:33.593Z,2.90
2022-12-19T20:56:02.719Z,2.90
2022-12-19T20:58:30.922Z,2.90
2022-12-19T21:01:14.182Z,2.80
2022-12-19T21:03:42.048Z,2.90
2022-12-19T21:06:12.034Z,2.90
2022-12-19T21:08:39.843Z,2.90
2022-12-19T21:11:09.772Z,2.80
2022-12-19T21:13:37.516Z,2.90
2022-12-19T21:16:08.993Z,2.90
2022-12-19T21:18:37.637Z,3.00
2022-12-19T21:21:06.477Z,3.10
2022-12-19T21:23:34.013Z,3.00
2022-12-19T21:26:06.559Z,2.90
2022-12-19T21:28:33.691Z,2.90
2022-12-19T21:31:04.364Z,2.90
2022-12-19T21:33:31.681Z,3.00
2022-12-19T21:36:04.750Z,2.90
2022-12-19T21:38:31.728Z,2.90
2022-12-19T21:41:03.368Z,2.90
2022-12-19T21:43:34.645Z,3.00
2022-12-19T21:46:10.305Z,3.00
2022-12-19T21:48:42.603Z,3.00
2022-12-19T21:51:12.973Z,2.90
2022-12-19T21:53:40.298Z,2.90
2022-12-19T21:56:37.436Z,3.00
2022-12-19T21:59:14.688Z,3.00
2022-12-19T22:01:42.813Z,3.10
2022-12-19T22:04:22.444Z,3.00
2022-12-19T22:06:51.454Z,3.00
2022-12-19T22:09:21.344Z,3.00
2022-12-19T22:11:49.968Z,3.00
2022-12-19T22:14:17.964Z,3.00
2022-12-19T22:16:45.412Z,3.00
2022-12-19T22:19:17.719Z,3.00
2022-12-19T22:21:48.788Z,3.00
2022-12-19T22:24:16.745Z,2.90
2022-12-19T22:26:44.048Z,2.90
2022-12-19T22:29:14.675Z,2.90
2022-12-19T22:31:42.194Z,2.90
2022-12-19T22:34:15.754Z,2.90
2022-12-19T22:36:43.824Z,2.90
2022-12-19T22:39:14.225Z,3.00
2022-12-19T22:41:42.455Z,2.90
2022-12-19T22:44:23.400Z,3.00
2022-12-19T22:46:51.422Z,2.90
2022-12-19T22:49:18.792Z,2.90
2022-12-19T22:51:45.865Z,2.90
2022-12-19T22:54:13.822Z,2.80
2022-12-19T22:56:42.995Z,2.90
2022-12-19T22:59:12.130Z,3.00
2022-12-19T23:01:43.834Z,3.00
2022-12-19T23:04:15.746Z,3.00
2022-12-19T23:06:43.892Z,3.00
2022-12-19T23:09:14.619Z,3.00
2022-12-19T23:11:44.302Z,3.00
2022-12-19T23:14:14.925Z,3.00
2022-12-19T23:16:43.211Z,3.00
2022-12-19T23:19:10.695Z,3.00
2022-12-19T23:21:38.564Z,3.00
2022-12-19T23:24:06.040Z,3.10
2022-12-19T23:26:37.147Z,3.00
2022-12-19T23:29:08.050Z,3.00
2022-12-19T23:31:35.919Z,2.90
2022-12-19T23:34:04.226Z,2.90
2022-12-19T23:39:18.532Z,2.90
2022-12-19T23:41:45.640Z,2.90
2022-12-19T23:44:18.464Z,2.90
2022-12-19T23:46:48.228Z,2.90
2022-12-19T23:49:16.740Z,2.90
2022-12-19T23:51:47.008Z,2.90
2022-12-19T23:54:13.944Z,2.90
2022-12-19T23:56:40.925Z,2.90
2022-12-19T23:59:08.995Z,2.90
